Time;durP1;ratioP1;P1;durP2;ratioP2;P2;SDS_P1;SDS_P2;PMS_P1;PMS_P2;Temp;Humidity;BMP_temperature;BMP_pressure;BME280_temperature;BME280_humidity;BME280_pressure;Samples;Min_cycle;Max_cycle;Signal;HPM_P1;HPM_P2
2021/08/18 00:01:25;;;;;;;19.05;13.45;;;17.50;78.50;;;;;;6247844;28;20442;-77
2021/08/18 00:04:27;;;;;;;27.17;14.73;;;17.50;78.40;;;;;;6247743;28;20436;-76
2021/08/18 00:07:29;;;;;;;23.55;13.13;;;17.50;78.60;;;;;;6247940;28;20910;-76
2021/08/18 00:10:31;;;;;;;20.58;14.50;;;17.60;78.50;;;;;;6248566;28;20435;-76
2021/08/18 00:13:33;;;;;;;25.63;14.32;;;17.60;77.70;;;;;;6247852;28;20502;-76
2021/08/18 00:16:36;;;;;;;22.23;15.63;;;17.50;78.20;;;;;;6244648;28;20465;-76
2021/08/18 00:19:38;;;;;;;22.13;14.98;;;17.50;77.50;;;;;;6247434;28;20502;-77
2021/08/18 00:22:40;;;;;;;24.38;13.70;;;17.50;76.80;;;;;;6248152;28;20527;-77
2021/08/18 00:25:42;;;;;;;19.48;14.93;;;17.60;77.40;;;;;;6247064;28;20505;-76
2021/08/18 00:28:45;;;;;;;21.10;13.85;;;17.50;77.40;;;;;;6247722;28;20517;-77
2021/08/18 00:31:48;;;;;;;21.52;14.02;;;17.40;77.00;;;;;;6247079;28;20443;-77
2021/08/18 00:34:50;;;;;;;20.75;14.85;;;17.50;76.70;;;;;;6247305;28;20523;-77
2021/08/18 00:37:52;;;;;;;21.48;14.07;;;17.50;77.50;;;;;;6247735;28;20520;-76
2021/08/18 00:40:54;;;;;;;23.10;15.70;;;17.50;76.70;;;;;;6247052;28;20498;-76
2021/08/18 00:43:56;;;;;;;20.35;15.85;;;17.50;76.80;;;;;;6247009;28;20989;-76
2021/08/18 00:47:00;;;;;;;25.20;16.65;;;17.50;76.60;;;;;;6246747;28;20798;-77
2021/08/18 00:50:02;;;;;;;25.30;15.07;;;17.50;76.90;;;;;;6247428;28;20532;-76
2021/08/18 00:53:04;;;;;;;20.55;16.10;;;17.50;76.90;;;;;;6247116;28;20449;-76
2021/08/18 00:56:06;;;;;;;25.10;15.48;;;17.50;76.80;;;;;;6246583;28;20993;-76
2021/08/18 00:59:08;;;;;;;26.88;16.00;;;17.50;76.80;;;;;;6247220;28;20544;-77
2021/08/18 01:02:12;;;;;;;23.67;15.90;;;17.50;76.70;;;;;;6245864;28;20491;-77
2021/08/18 01:05:15;;;;;;;19.98;14.75;;;17.50;77.10;;;;;;6221945;28;20482;-76
2021/08/18 01:08:17;;;;;;;24.67;15.10;;;17.50;77.30;;;;;;6221383;28;20556;-76
2021/08/18 01:11:19;;;;;;;25.00;16.00;;;17.40;77.20;;;;;;6221831;28;20424;-76
2021/08/18 01:14:22;;;;;;;23.05;15.57;;;17.40;78.00;;;;;;6222106;28;20595;-76
2021/08/18 01:17:33;;;;;;;20.58;15.60;;;17.30;77.60;;;;;;6221721;28;20514;-76
2021/08/18 01:20:38;;;;;;;21.83;14.63;;;17.30;78.00;;;;;;6221882;28;21059;-77
2021/08/18 01:23:40;;;;;;;21.67;14.20;;;17.20;77.90;;;;;;6221574;28;20460;-76
2021/08/18 01:26:42;;;;;;;20.30;13.98;;;17.20;78.00;;;;;;6221980;28;20515;-77
2021/08/18 01:29:46;;;;;;;18.80;13.52;;;17.20;78.30;;;;;;6222200;28;20520;-76
2021/08/18 01:32:55;;;;;;;22.55;15.18;;;17.20;78.50;;;;;;6221468;28;20504;-77
2021/08/18 01:35:57;;;;;;;22.60;16.48;;;17.20;78.90;;;;;;6221210;28;20527;-76
2021/08/18 01:39:01;;;;;;;25.17;16.38;;;17.10;79.20;;;;;;6221543;28;20522;-76
2021/08/18 01:42:03;;;;;;;22.77;15.45;;;17.10;79.90;;;;;;6221730;28;21032;-76
2021/08/18 01:45:08;;;;;;;27.20;16.90;;;17.10;80.00;;;;;;6220983;28;20424;-76
2021/08/18 01:48:12;;;;;;;27.48;17.30;;;17.00;80.60;;;;;;6221093;28;20576;-76
2021/08/18 01:51:14;;;;;;;27.57;19.80;;;17.00;80.60;;;;;;6221254;28;20547;-76
2021/08/18 01:54:15;;;;;;;31.38;17.55;;;17.00;80.40;;;;;;6221364;28;20939;-76
2021/08/18 01:57:18;;;;;;;29.55;18.45;;;17.00;80.90;;;;;;6220899;28;20412;-76
2021/08/18 02:00:21;;;;;;;29.38;19.45;;;17.10;81.20;;;;;;6220731;28;20451;-76
2021/08/18 02:03:23;;;;;;;28.35;17.67;;;17.10;81.10;;;;;;6231868;28;20451;-77
2021/08/18 02:06:25;;;;;;;32.95;19.13;;;17.10;81.70;;;;;;6245455;28;20435;-76
2021/08/18 02:09:27;;;;;;;29.38;19.02;;;17.10;81.20;;;;;;6245083;28;20417;-76
2021/08/18 02:12:29;;;;;;;30.45;18.10;;;17.00;81.10;;;;;;6245112;28;20415;-76
2021/08/18 02:15:34;;;;;;;27.08;18.15;;;17.00;81.20;;;;;;6245170;28;20516;-76
2021/08/18 02:18:36;;;;;;;26.30;16.37;;;17.00;81.30;;;;;;6245123;28;21050;-76
2021/08/18 02:21:37;;;;;;;25.95;16.40;;;17.00;81.00;;;;;;6244727;28;20985;-76
2021/08/18 02:24:39;;;;;;;24.75;16.45;;;17.10;81.50;;;;;;6244725;28;20413;-76
2021/08/18 02:27:42;;;;;;;21.77;15.33;;;17.10;81.00;;;;;;6244983;28;20494;-77
2021/08/18 02:30:45;;;;;;;23.67;16.10;;;17.10;80.50;;;;;;6245123;28;20437;-77
2021/08/18 02:33:47;;;;;;;24.73;15.77;;;17.10;80.30;;;;;;6245102;28;20807;-77
2021/08/18 02:36:49;;;;;;;23.10;14.85;;;17.10;80.40;;;;;;6244565;28;20501;-76
2021/08/18 02:39:51;;;;;;;18.80;14.95;;;17.20;80.20;;;;;;6244733;28;20439;-76
2021/08/18 02:42:54;;;;;;;23.63;14.75;;;17.20;80.20;;;;;;6244678;28;20602;-76
2021/08/18 02:45:57;;;;;;;23.38;15.25;;;17.20;80.20;;;;;;6244897;28;20431;-76
2021/08/18 02:48:59;;;;;;;27.85;17.73;;;17.10;80.20;;;;;;6244492;28;20846;-76
2021/08/18 02:52:01;;;;;;;23.47;16.47;;;17.10;80.70;;;;;;6244605;28;20561;-76
2021/08/18 02:55:03;;;;;;;22.35;15.60;;;17.10;81.00;;;;;;6244227;28;20487;-76
2021/08/18 02:58:05;;;;;;;27.40;16.80;;;17.10;81.20;;;;;;6245202;28;20525;-77
2021/08/18 03:01:08;;;;;;;27.63;17.65;;;17.00;81.20;;;;;;6244272;28;20494;-77
2021/08/18 03:04:10;;;;;;;25.90;17.17;;;17.00;81.20;;;;;;6244430;28;20515;-76
2021/08/18 03:07:12;;;;;;;27.55;16.73;;;17.00;81.90;;;;;;6244204;28;20473;-77
2021/08/18 03:10:14;;;;;;;29.80;16.47;;;17.00;81.10;;;;;;6244606;28;20460;-77
2021/08/18 03:13:16;;;;;;;24.20;16.15;;;17.10;81.10;;;;;;6244405;28;20450;-77
2021/08/18 03:16:19;;;;;;;29.80;17.33;;;17.00;80.90;;;;;;6243946;28;20503;-77
2021/08/18 03:19:21;;;;;;;29.25;18.63;;;17.00;80.70;;;;;;6244406;28;20423;-77
2021/08/18 03:22:23;;;;;;;27.90;18.02;;;16.90;80.70;;;;;;6245452;28;20434;-76
2021/08/18 03:25:24;;;;;;;28.00;16.02;;;16.90;80.90;;;;;;6244413;28;20414;-77
2021/08/18 03:28:26;;;;;;;26.88;17.25;;;16.90;81.30;;;;;;6244253;28;20415;-76
2021/08/18 03:31:30;;;;;;;29.92;17.67;;;16.90;81.30;;;;;;6246669;28;20438;-77
2021/08/18 03:34:31;;;;;;;25.47;16.83;;;16.90;81.20;;;;;;6248854;28;20437;-76
2021/08/18 03:37:33;;;;;;;26.20;17.30;;;16.80;81.00;;;;;;6248500;28;20420;-77
2021/08/18 03:40:35;;;;;;;26.63;16.95;;;16.90;81.10;;;;;;6248634;28;20481;-76
2021/08/18 03:43:37;;;;;;;26.13;18.20;;;16.80;81.60;;;;;;6248541;28;20505;-77
2021/08/18 03:46:40;;;;;;;25.20;16.83;;;16.80;81.40;;;;;;6248512;28;20552;-76
2021/08/18 03:49:42;;;;;;;27.90;16.73;;;16.80;81.50;;;;;;6248124;28;20419;-76
2021/08/18 03:52:44;;;;;;;27.90;17.60;;;16.80;81.60;;;;;;6248366;28;20541;-75
2021/08/18 03:55:46;;;;;;;28.40;18.25;;;16.80;81.80;;;;;;6248231;28;20425;-75
2021/08/18 03:58:48;;;;;;;28.65;18.83;;;16.90;81.70;;;;;;6248370;28;20434;-76
2021/08/18 04:01:51;;;;;;;28.67;18.98;;;17.00;81.60;;;;;;6248233;28;20986;-76
2021/08/18 04:04:53;;;;;;;26.10;17.65;;;16.90;81.30;;;;;;6247635;28;20449;-75
2021/08/18 04:07:54;;;;;;;21.95;16.20;;;16.90;81.50;;;;;;6247991;28;20438;-76
2021/08/18 04:10:56;;;;;;;27.27;19.08;;;16.90;81.50;;;;;;6247884;28;20527;-75
2021/08/18 04:13:58;;;;;;;29.33;18.08;;;17.00;81.60;;;;;;6248223;28;20525;-76
2021/08/18 04:17:01;;;;;;;29.67;18.07;;;16.90;81.00;;;;;;6247603;28;20496;-76
2021/08/18 04:20:03;;;;;;;31.38;19.38;;;16.90;81.30;;;;;;6247343;28;20870;-76
2021/08/18 04:23:06;;;;;;;28.35;17.48;;;16.90;81.90;;;;;;6247676;28;20496;-76
2021/08/18 04:26:08;;;;;;;28.13;16.95;;;16.90;81.40;;;;;;6247633;28;20471;-75
2021/08/18 04:29:09;;;;;;;25.95;18.70;;;16.90;81.60;;;;;;6247481;28;20913;-76
2021/08/18 04:32:13;;;;;;;26.47;16.57;;;16.90;81.70;;;;;;6247373;28;20914;-76
2021/08/18 04:35:16;;;;;;;30.52;17.50;;;16.90;81.60;;;;;;6246855;28;21036;-76
2021/08/18 04:38:18;;;;;;;25.13;17.27;;;16.90;81.50;;;;;;6247913;28;20471;-76
2021/08/18 04:41:20;;;;;;;27.90;17.27;;;16.90;81.70;;;;;;6246904;28;20558;-75
2021/08/18 04:44:21;;;;;;;26.67;17.48;;;16.90;81.70;;;;;;6247138;28;20421;-76
2021/08/18 04:47:25;;;;;;;24.70;16.50;;;16.80;81.60;;;;;;6246771;28;20407;-76
2021/08/18 04:50:26;;;;;;;31.38;17.67;;;16.90;81.70;;;;;;6247553;28;20460;-76
2021/08/18 04:53:29;;;;;;;28.45;17.33;;;16.90;81.60;;;;;;6248314;28;20415;-77
2021/08/18 04:56:31;;;;;;;25.93;17.53;;;16.80;82.00;;;;;;6246402;28;20441;-77
2021/08/18 04:59:33;;;;;;;24.60;15.90;;;16.80;82.20;;;;;;6246607;28;20559;-77
2021/08/18 05:02:36;;;;;;;24.00;16.77;;;16.90;82.40;;;;;;6247534;28;20523;-76
2021/08/18 05:05:38;;;;;;;30.97;17.67;;;16.70;82.70;;;;;;6246276;28;20556;-77
2021/08/18 05:08:40;;;;;;;27.83;16.85;;;16.70;83.00;;;;;;6246513;28;20419;-77
2021/08/18 05:11:42;;;;;;;28.02;15.70;;;16.70;82.90;;;;;;6246531;28;20480;-77
2021/08/18 05:14:43;;;;;;;27.50;16.60;;;16.70;83.00;;;;;;6246040;28;20536;-77
2021/08/18 05:17:47;;;;;;;29.27;16.48;;;16.70;82.90;;;;;;6269943;28;20463;-76
2021/08/18 05:20:48;;;;;;;27.07;16.20;;;16.80;83.10;;;;;;6270849;28;20989;-76
2021/08/18 05:23:50;;;;;;;24.10;15.93;;;16.80;83.20;;;;;;6270899;28;20627;-76
2021/08/18 05:26:52;;;;;;;29.38;16.55;;;16.80;83.00;;;;;;6270497;28;20475;-77
2021/08/18 05:29:54;;;;;;;27.07;17.57;;;16.80;83.50;;;;;;6271042;28;20969;-76
2021/08/18 05:32:57;;;;;;;27.10;16.55;;;16.70;83.40;;;;;;6270803;28;20409;-76
2021/08/18 05:36:00;;;;;;;28.43;18.13;;;16.70;83.60;;;;;;6270166;28;20529;-76
2021/08/18 05:39:02;;;;;;;28.95;17.73;;;16.70;83.70;;;;;;6270635;28;20912;-76
2021/08/18 05:42:04;;;;;;;28.48;16.25;;;16.60;84.10;;;;;;6270882;28;20437;-77
2021/08/18 05:45:07;;;;;;;26.95;16.83;;;16.60;84.80;;;;;;6269994;28;20888;-77
2021/08/18 05:48:10;;;;;;;24.13;15.85;;;16.60;84.50;;;;;;6270521;28;20604;-77
2021/08/18 05:51:13;;;;;;;22.77;15.43;;;16.60;84.80;;;;;;6270283;28;20447;-76
2021/08/18 05:54:14;;;;;;;24.65;16.65;;;16.70;84.80;;;;;;6270015;28;20445;-77
2021/08/18 05:57:16;;;;;;;22.95;14.52;;;16.70;84.80;;;;;;6270187;28;20413;-77
2021/08/18 06:00:18;;;;;;;23.83;15.70;;;16.70;84.80;;;;;;6269915;28;20512;-76
2021/08/18 06:03:21;;;;;;;22.70;15.27;;;16.70;85.00;;;;;;6259264;28;20784;-76
2021/08/18 06:06:23;;;;;;;23.38;15.02;;;16.70;85.00;;;;;;6245553;28;20514;-76
2021/08/18 06:09:25;;;;;;;24.23;15.03;;;16.70;84.90;;;;;;6245165;28;20509;-76
2021/08/18 06:12:27;;;;;;;19.08;13.77;;;16.70;84.90;;;;;;6244932;28;20419;-76
2021/08/18 06:15:29;;;;;;;21.77;14.43;;;16.80;84.70;;;;;;6243553;28;20544;-77
2021/08/18 06:18:32;;;;;;;20.08;13.25;;;16.90;84.60;;;;;;6235583;28;20488;-77
2021/08/18 06:21:34;;;;;;;22.07;13.77;;;16.90;84.20;;;;;;6245167;28;20975;-76
2021/08/18 06:24:43;;;;;;;18.60;12.73;;;16.90;84.30;;;;;;6244663;28;20419;-77
2021/08/18 06:27:45;;;;;;;23.42;14.02;;;16.90;84.10;;;;;;6244901;28;20889;-77
2021/08/18 06:30:47;;;;;;;19.38;13.32;;;16.90;84.60;;;;;;6244752;28;20473;-77
2021/08/18 06:33:50;;;;;;;20.80;13.43;;;16.90;84.20;;;;;;6245036;28;20868;-77
2021/08/18 06:36:52;;;;;;;19.33;13.10;;;17.00;84.40;;;;;;6248902;28;20411;-77
2021/08/18 06:39:54;;;;;;;18.63;13.77;;;17.10;84.00;;;;;;6246882;28;20500;-77
2021/08/18 06:42:56;;;;;;;21.25;12.57;;;17.10;84.00;;;;;;6245051;28;20449;-77
2021/08/18 06:45:58;;;;;;;17.58;12.05;;;17.10;83.90;;;;;;6244593;28;20918;-77
2021/08/18 06:49:01;;;;;;;18.65;11.65;;;17.10;84.00;;;;;;6244660;28;20490;-77
2021/08/18 06:52:04;;;;;;;16.98;11.75;;;17.10;83.90;;;;;;6244549;28;20539;-77
2021/08/18 06:55:06;;;;;;;17.45;12.25;;;17.10;84.40;;;;;;6244261;28;20473;-77
2021/08/18 06:58:08;;;;;;;16.57;10.53;;;17.20;84.20;;;;;;6245009;28;20512;-77
2021/08/18 07:01:10;;;;;;;15.18;10.55;;;17.20;84.10;;;;;;6244366;28;20506;-77
2021/08/18 07:04:13;;;;;;;19.25;11.48;;;17.20;83.40;;;;;;6244407;28;20497;-77
2021/08/18 07:07:15;;;;;;;15.07;12.02;;;17.20;84.40;;;;;;6248097;28;20530;-78
2021/08/18 07:10:17;;;;;;;19.27;11.45;;;17.30;82.90;;;;;;6249709;28;20521;-77
2021/08/18 07:13:19;;;;;;;17.48;11.35;;;17.30;83.30;;;;;;6249107;28;20508;-77
2021/08/18 07:16:21;;;;;;;16.97;11.00;;;17.40;83.10;;;;;;6248646;28;20563;-77
2021/08/18 07:19:25;;;;;;;16.13;10.40;;;17.40;82.90;;;;;;6244591;28;20556;-77
2021/08/18 07:22:26;;;;;;;11.68;9.15;;;17.50;82.60;;;;;;6249671;28;20513;-77
2021/08/18 07:25:28;;;;;;;11.85;9.23;;;17.60;82.30;;;;;;6248507;28;20415;-77
2021/08/18 07:28:30;;;;;;;11.63;9.20;;;17.60;81.90;;;;;;6247884;28;20435;-77
2021/08/18 07:31:32;;;;;;;20.23;9.93;;;17.60;81.80;;;;;;6249128;28;20500;-76
2021/08/18 07:34:35;;;;;;;13.57;10.13;;;17.70;82.10;;;;;;6248946;28;20979;-77
2021/08/18 07:37:38;;;;;;;12.80;8.73;;;17.70;81.80;;;;;;6249091;28;20922;-77
2021/08/18 07:40:40;;;;;;;14.50;10.00;;;17.80;81.40;;;;;;6248531;28;20415;-77
2021/08/18 07:43:42;;;;;;;13.85;9.75;;;17.80;81.30;;;;;;6248764;28;20442;-77
2021/08/18 07:46:46;;;;;;;14.55;9.35;;;17.90;81.20;;;;;;6248698;28;20957;-77
2021/08/18 07:49:49;;;;;;;14.20;9.35;;;17.90;81.10;;;;;;6249143;28;20438;-77
2021/08/18 07:52:51;;;;;;;15.68;9.88;;;17.90;81.00;;;;;;6248423;28;20552;-77
2021/08/18 07:55:53;;;;;;;13.13;9.05;;;17.80;81.50;;;;;;6248215;28;20411;-77
2021/08/18 07:58:55;;;;;;;15.13;9.13;;;17.80;81.10;;;;;;6248199;28;20956;-76
2021/08/18 08:01:57;;;;;;;11.77;8.68;;;17.90;81.30;;;;;;6248354;28;20806;-78
2021/08/18 08:05:05;;;;;;;15.37;9.13;;;18.00;81.10;;;;;;6247712;28;20827;-77
2021/08/18 08:08:07;;;;;;;13.07;8.90;;;18.00;80.90;;;;;;6248246;28;20986;-78
2021/08/18 08:11:09;;;;;;;18.38;9.00;;;18.10;80.50;;;;;;6247654;28;20487;-77
2021/08/18 08:14:11;;;;;;;16.92;9.45;;;18.20;80.80;;;;;;6248202;28;20532;-77
2021/08/18 08:17:13;;;;;;;11.97;8.93;;;18.20;80.70;;;;;;6246577;28;20445;-77
2021/08/18 08:20:16;;;;;;;11.85;7.90;;;18.30;80.30;;;;;;6245810;28;21002;-77
2021/08/18 08:23:18;;;;;;;10.93;8.50;;;18.60;79.50;;;;;;6247563;28;20439;-77
2021/08/18 08:26:19;;;;;;;12.45;7.45;;;18.90;78.80;;;;;;6247494;28;20493;-77
2021/08/18 08:29:21;;;;;;;10.90;8.27;;;19.10;77.80;;;;;;6247438;28;20502;-77
2021/08/18 08:32:23;;;;;;;11.68;7.25;;;19.30;77.40;;;;;;6247068;28;20899;-77
2021/08/18 08:35:26;;;;;;;11.03;8.17;;;19.50;76.50;;;;;;6247317;28;20549;-77
2021/08/18 08:38:28;;;;;;;11.63;7.72;;;19.70;75.30;;;;;;6247721;28;20513;-77
2021/08/18 08:41:33;;;;;;;11.87;7.63;;;19.80;74.70;;;;;;6247119;28;20458;-77
2021/08/18 08:44:35;;;;;;;10.25;7.63;;;19.80;74.30;;;;;;6246914;28;20548;-77
2021/08/18 08:47:37;;;;;;;11.25;8.77;;;19.80;74.20;;;;;;6246551;28;20929;-77
2021/08/18 08:50:41;;;;;;;21.65;7.38;;;19.70;75.30;;;;;;6247012;28;20632;-77
2021/08/18 08:53:43;;;;;;;10.20;8.68;;;19.70;74.80;;;;;;6246558;28;20438;-77
2021/08/18 08:56:45;;;;;;;10.38;8.02;;;19.80;74.60;;;;;;6246910;28;20675;-77
2021/08/18 08:59:47;;;;;;;9.57;7.38;;;19.70;75.10;;;;;;6246296;28;20501;-77
2021/08/18 09:02:49;;;;;;;10.30;7.93;;;19.80;74.60;;;;;;6246984;28;20508;-77
2021/08/18 09:05:53;;;;;;;10.37;8.10;;;20.00;74.00;;;;;;6246962;28;20467;-77
2021/08/18 09:08:55;;;;;;;10.90;8.00;;;19.90;73.60;;;;;;6246918;28;20421;-77
2021/08/18 09:12:04;;;;;;;10.20;7.50;;;20.00;73.20;;;;;;6246491;28;20548;-77
2021/08/18 09:15:14;;;;;;;10.00;7.00;;;19.90;73.20;;;;;;6246513;28;20417;-77
2021/08/18 09:18:35;;;;;;;10.68;8.25;;;19.70;73.70;;;;;;6246797;28;20585;-77
2021/08/18 09:21:39;;;;;;;10.80;7.03;;;19.70;74.20;;;;;;6236940;28;20473;-77
2021/08/18 09:24:41;;;;;;;9.65;6.72;;;19.70;74.30;;;;;;6246373;28;20490;-77
2021/08/18 09:27:44;;;;;;;10.52;7.43;;;19.90;73.30;;;;;;6245524;28;20782;-77
2021/08/18 09:30:47;;;;;;;8.33;6.50;;;20.20;72.30;;;;;;6246096;28;20801;-77
2021/08/18 09:33:55;;;;;;;10.00;6.75;;;20.40;71.90;;;;;;6246463;28;20857;-77
2021/08/18 09:37:10;;;;;;;9.07;6.90;;;20.70;70.90;;;;;;6246019;28;20911;-77
2021/08/18 09:40:18;;;;;;;11.50;6.32;;;20.70;70.00;;;;;;6250337;28;20419;-77
2021/08/18 09:43:23;;;;;;;11.90;7.17;;;20.60;70.40;;;;;;6248434;28;20780;-78
2021/08/18 09:46:29;;;;;;;9.87;6.57;;;20.60;70.50;;;;;;6249209;28;20439;-78
2021/08/18 09:49:32;;;;;;;12.25;7.13;;;20.60;70.30;;;;;;6246689;28;20898;-80
2021/08/18 09:52:35;;;;;;;9.60;5.68;;;20.60;69.80;;;;;;6249198;28;20818;-78
2021/08/18 09:55:38;;;;;;;8.70;6.03;;;20.80;69.80;;;;;;6251601;28;20442;-78
2021/08/18 09:58:42;;;;;;;7.60;5.82;;;21.10;69.20;;;;;;6253021;28;20485;-78
2021/08/18 10:01:45;;;;;;;9.77;6.82;;;21.20;68.40;;;;;;6249067;28;20914;-78
2021/08/18 10:04:47;;;;;;;8.93;6.72;;;21.30;67.40;;;;;;6251265;28;20894;-78
2021/08/18 10:07:51;;;;;;;8.63;6.32;;;21.30;66.90;;;;;;6251904;28;20407;-78
2021/08/18 10:10:54;;;;;;;7.97;6.20;;;21.40;67.80;;;;;;6251731;28;20438;-78
2021/08/18 10:13:56;;;;;;;9.10;5.80;;;21.30;67.20;;;;;;6253573;28;20527;-77
2021/08/18 10:16:58;;;;;;;8.13;6.10;;;21.40;67.10;;;;;;6258275;28;20431;-77
2021/08/18 10:20:00;;;;;;;7.85;6.25;;;21.40;66.70;;;;;;6277288;28;20395;-75
2021/08/18 10:23:05;;;;;;;8.40;6.15;;;21.70;66.30;;;;;;6276965;28;20461;-76
2021/08/18 10:26:07;;;;;;;8.00;5.93;;;22.20;65.90;;;;;;6277335;28;20410;-76
2021/08/18 10:29:12;;;;;;;7.03;5.38;;;22.80;65.00;;;;;;6276687;28;20395;-76
2021/08/18 10:32:15;;;;;;;7.82;6.07;;;23.20;61.30;;;;;;6276705;28;20418;-76
2021/08/18 10:35:43;;;;;;;8.55;5.75;;;23.30;60.90;;;;;;6275807;28;20426;-76
2021/08/18 10:38:46;;;;;;;7.13;5.72;;;23.50;61.40;;;;;;6275188;28;20427;-76
2021/08/18 10:41:58;;;;;;;7.47;5.32;;;23.70;61.00;;;;;;6274291;28;20977;-76
2021/08/18 10:45:00;;;;;;;8.48;4.97;;;23.70;59.60;;;;;;6273137;28;20407;-76
2021/08/18 10:48:03;;;;;;;7.80;4.50;;;23.30;61.30;;;;;;6270096;28;20500;-75
2021/08/18 10:51:05;;;;;;;7.07;4.55;;;22.80;63.00;;;;;;6271282;28;20462;-75
2021/08/18 10:54:42;;;;;;;7.72;5.03;;;22.40;64.70;;;;;;6259795;28;20423;-75
2021/08/18 10:57:47;;;;;;;6.40;4.50;;;22.10;65.80;;;;;;6245424;28;20490;-75
2021/08/18 11:00:49;;;;;;;6.28;4.18;;;22.30;65.20;;;;;;6278832;22;21042;-75
2021/08/18 11:03:51;;;;;;;3.45;2.80;;;22.50;64.80;;;;;;6319046;28;20434;-75
2021/08/18 11:06:53;;;;;;;3.90;2.80;;;22.40;63.70;;;;;;6318596;28;20516;-75
2021/08/18 11:10:03;;;;;;;5.15;1.90;;;22.40;63.60;;;;;;6319463;28;20509;-75
2021/08/18 11:13:06;;;;;;;4.75;2.25;;;22.40;63.80;;;;;;6293820;28;20411;-74
2021/08/18 11:16:11;;;;;;;3.20;1.77;;;22.70;62.90;;;;;;6293439;28;20794;-74
2021/08/18 11:19:13;;;;;;;3.75;1.55;;;22.90;62.60;;;;;;6293556;28;20804;-74
2021/08/18 11:22:14;;;;;;;1.55;1.42;;;23.10;62.30;;;;;;6290804;28;20518;-75
2021/08/18 11:25:19;;;;;;;2.92;1.88;;;23.20;59.50;;;;;;6289971;28;21005;-75
2021/08/18 11:28:22;;;;;;;2.80;1.50;;;23.30;60.00;;;;;;6293760;28;20775;-75
2021/08/18 11:31:38;;;;;;;2.97;1.58;;;23.30;60.30;;;;;;6293651;28;20910;-75
2021/08/18 11:34:43;;;;;;;2.67;2.00;;;23.40;60.00;;;;;;6293914;28;20482;-75
2021/08/18 11:38:00;;;;;;;3.95;2.50;;;23.30;59.90;;;;;;6293654;28;20510;-75
2021/08/18 11:41:04;;;;;;;2.67;2.47;;;23.10;60.20;;;;;;6293814;28;20411;-75
2021/08/18 11:44:05;;;;;;;3.75;2.35;;;22.90;60.90;;;;;;6293255;28;20477;-75
2021/08/18 11:47:09;;;;;;;4.18;2.70;;;22.70;61.40;;;;;;6293210;28;20489;-75
2021/08/18 11:50:14;;;;;;;2.83;2.42;;;22.50;61.90;;;;;;6293497;28;20931;-75
2021/08/18 11:53:17;;;;;;;5.18;2.25;;;22.60;62.00;;;;;;6296483;28;20419;-75
2021/08/18 11:56:25;;;;;;;2.70;1.75;;;22.80;61.60;;;;;;6297387;28;20416;-75
2021/08/18 11:59:27;;;;;;;2.83;2.25;;;22.80;61.00;;;;;;6297446;28;20416;-75
2021/08/18 12:02:31;;;;;;;1.60;1.50;;;22.90;60.70;;;;;;6297752;28;20508;-75
2021/08/18 12:05:36;;;;;;;1.85;1.73;;;22.90;61.40;;;;;;6296909;28;20492;-75
2021/08/18 12:08:41;;;;;;;4.13;2.80;;;22.80;60.70;;;;;;6296767;28;20943;-75
2021/08/18 12:11:45;;;;;;;1.77;1.67;;;22.90;61.60;;;;;;6297025;28;20956;-75
2021/08/18 12:14:48;;;;;;;3.00;1.47;;;22.90;61.60;;;;;;6296889;28;20497;-74
2021/08/18 12:17:50;;;;;;;2.27;1.80;;;22.90;61.10;;;;;;6297401;28;20428;-76
2021/08/18 12:20:52;;;;;;;1.33;1.10;;;22.90;61.10;;;;;;6296837;28;20436;-75
2021/08/18 12:23:56;;;;;;;2.25;1.52;;;22.70;62.30;;;;;;6292763;28;20419;-75
2021/08/18 12:27:01;;;;;;;2.45;1.70;;;22.70;61.60;;;;;;6296217;28;20456;-77
2021/08/18 12:30:06;;;;;;;2.88;1.20;;;22.80;61.60;;;;;;6297203;28;20484;-76
2021/08/18 12:33:18;;;;;;;1.63;1.25;;;23.00;60.60;;;;;;6296829;28;20423;-76
2021/08/18 12:36:19;;;;;;;2.67;1.60;;;23.10;60.80;;;;;;6296346;28;20419;-75
2021/08/18 12:39:29;;;;;;;2.58;1.45;;;22.90;60.00;;;;;;6296745;28;20416;-76
2021/08/18 12:42:34;;;;;;;1.95;1.52;;;22.70;61.90;;;;;;6296858;28;20489;-76
2021/08/18 12:45:36;;;;;;;3.53;1.60;;;22.80;63.60;;;;;;6296245;28;20455;-75
2021/08/18 12:48:38;;;;;;;1.60;1.42;;;23.10;61.90;;;;;;6296144;28;20494;-76
2021/08/18 12:51:39;;;;;;;4.90;1.90;;;23.60;61.00;;;;;;6296524;28;20418;-76
2021/08/18 12:54:41;;;;;;;3.10;1.88;;;24.00;58.10;;;;;;6296466;28;20424;-75
2021/08/18 12:57:44;;;;;;;1.77;1.40;;;24.10;57.20;;;;;;6296348;28;20399;-76
2021/08/18 13:00:46;;;;;;;1.60;1.40;;;24.20;57.20;;;;;;6295952;28;20550;-75
2021/08/18 13:03:50;;;;;;;2.33;1.38;;;24.20;56.70;;;;;;6296091;28;20408;-75
2021/08/18 13:06:51;;;;;;;1.80;1.70;;;24.30;56.10;;;;;;6295662;28;20918;-75
2021/08/18 13:09:53;;;;;;;2.85;1.65;;;24.50;55.20;;;;;;6296083;28;20430;-75
2021/08/18 13:12:57;;;;;;;2.00;1.20;;;24.70;55.40;;;;;;6296553;28;20501;-76
2021/08/18 13:15:59;;;;;;;2.03;1.50;;;25.00;55.60;;;;;;6295313;28;20448;-76
2021/08/18 13:19:00;;;;;;;2.33;1.83;;;25.30;53.70;;;;;;6295885;28;20944;-77
2021/08/18 13:22:02;;;;;;;2.50;1.95;;;25.20;54.40;;;;;;6295621;28;20434;-76
2021/08/18 13:25:07;;;;;;;1.98;1.63;;;25.20;53.30;;;;;;6288023;28;20776;-75
2021/08/18 13:28:10;;;;;;;1.77;1.45;;;25.10;54.70;;;;;;6295265;28;20626;-76
2021/08/18 13:31:12;;;;;;;1.60;1.50;;;25.00;55.10;;;;;;6295589;28;20455;-76
2021/08/18 13:34:14;;;;;;;1.77;1.60;;;25.00;54.70;;;;;;6296152;28;20477;-76
2021/08/18 13:37:16;;;;;;;2.43;2.00;;;24.90;54.80;;;;;;6295547;28;20494;-76
2021/08/18 13:40:18;;;;;;;3.95;1.90;;;24.80;55.10;;;;;;6295482;28;20541;-76
2021/08/18 13:43:22;;;;;;;2.10;1.85;;;24.80;55.10;;;;;;6295208;28;20497;-76
2021/08/18 13:46:25;;;;;;;2.80;1.88;;;24.80;54.50;;;;;;6295718;28;20438;-76
2021/08/18 13:49:26;;;;;;;2.60;1.50;;;24.70;54.50;;;;;;6295104;28;20416;-75
2021/08/18 13:52:28;;;;;;;2.97;2.10;;;24.60;55.10;;;;;;6295170;28;21024;-75
2021/08/18 13:55:30;;;;;;;2.95;2.15;;;24.60;55.40;;;;;;6294783;28;20517;-76
2021/08/18 13:58:34;;;;;;;2.30;1.95;;;24.60;55.60;;;;;;6295842;28;20450;-77
2021/08/18 14:01:36;;;;;;;2.47;1.80;;;24.60;56.10;;;;;;6295075;28;20453;-75
2021/08/18 14:04:38;;;;;;;3.20;1.73;;;24.60;56.50;;;;;;6294965;28;20887;-76
2021/08/18 14:07:40;;;;;;;4.15;2.05;;;24.60;56.00;;;;;;6295842;28;20412;-76
2021/08/18 14:10:42;;;;;;;2.45;1.83;;;24.50;57.00;;;;;;6295753;28;20974;-76
2021/08/18 14:13:45;;;;;;;3.63;1.90;;;24.30;57.10;;;;;;6295936;28;20407;-76
2021/08/18 14:16:47;;;;;;;3.20;1.95;;;24.30;55.40;;;;;;6294210;28;20509;-75
2021/08/18 14:19:49;;;;;;;2.15;1.90;;;24.30;55.70;;;;;;6294593;28;20975;-76
2021/08/18 14:22:51;;;;;;;1.60;1.50;;;24.20;56.60;;;;;;6294379;28;20427;-76
2021/08/18 14:25:52;;;;;;;3.13;1.77;;;24.10;57.50;;;;;;6290703;28;20485;-76
2021/08/18 14:28:56;;;;;;;2.78;2.08;;;24.00;57.60;;;;;;6294075;28;21158;-76
2021/08/18 14:31:57;;;;;;;2.35;1.90;;;23.90;57.60;;;;;;6294434;28;20419;-76
2021/08/18 14:34:59;;;;;;;2.63;1.63;;;23.80;57.60;;;;;;6294157;28;20462;-76
2021/08/18 14:38:01;;;;;;;2.50;1.88;;;23.80;56.60;;;;;;6294828;28;20466;-76
2021/08/18 14:41:03;;;;;;;1.67;1.50;;;23.80;56.60;;;;;;6294421;28;20482;-76
2021/08/18 14:44:07;;;;;;;3.00;2.03;;;24.00;57.50;;;;;;6294615;28;20492;-74
2021/08/18 14:47:09;;;;;;;2.80;2.28;;;24.00;56.60;;;;;;6294257;28;20909;-76
2021/08/18 14:50:14;;;;;;;3.92;1.75;;;24.20;56.50;;;;;;6294411;28;20428;-75
2021/08/18 14:53:15;;;;;;;2.25;1.90;;;24.30;55.80;;;;;;6294141;28;20494;-76
2021/08/18 14:56:18;;;;;;;2.42;1.60;;;24.40;55.00;;;;;;6293514;28;20794;-76
2021/08/18 14:59:21;;;;;;;15.02;2.55;;;24.30;54.80;;;;;;6294008;28;20464;-76
2021/08/18 15:02:23;;;;;;;4.45;2.20;;;24.30;55.60;;;;;;6294170;28;20511;-75
2021/08/18 15:05:24;;;;;;;2.00;1.75;;;24.30;55.40;;;;;;6293589;28;20408;-76
2021/08/18 15:08:26;;;;;;;2.25;1.70;;;24.40;55.60;;;;;;6293716;28;20434;-75
2021/08/18 15:11:28;;;;;;;3.65;2.13;;;24.50;54.90;;;;;;6293931;28;20439;-76
2021/08/18 15:14:31;;;;;;;2.75;1.98;;;24.60;54.50;;;;;;6293933;28;20510;-76
2021/08/18 15:17:35;;;;;;;2.65;2.28;;;24.70;54.40;;;;;;6293421;28;21008;-76
2021/08/18 15:20:37;;;;;;;3.75;1.88;;;24.60;54.30;;;;;;6294042;28;20495;-76
2021/08/18 15:23:38;;;;;;;2.60;1.95;;;24.50;54.10;;;;;;6293635;28;20992;-76
2021/08/18 15:26:40;;;;;;;2.03;1.42;;;24.40;54.70;;;;;;6291078;28;20431;-76
2021/08/18 15:29:44;;;;;;;2.78;2.00;;;24.40;55.30;;;;;;6276248;28;20555;-76
2021/08/18 15:32:48;;;;;;;2.13;1.58;;;24.40;55.40;;;;;;6273303;28;20413;-75
2021/08/18 15:35:51;;;;;;;1.88;1.58;;;24.50;54.90;;;;;;6273065;28;20414;-76
2021/08/18 15:38:53;;;;;;;1.63;1.45;;;24.50;54.70;;;;;;6273293;28;20425;-76